Air Resources Laboratory banner image
Air Resources Laboratory web site National Oceanic and Atmospheric Administration (NOAA)

mn metar


KADC 140155Z AUTO 36007KT 10SM OVC016 M09/M12 A2991 RMK AO2=
KAEL 140159Z AUTO 34008G14KT 10SM BKN018 BKN055 M05/M08 A2985 RMK AO2=
KAIT 140155Z AUTO 33006KT 10SM OVC023 M09/M11 A2989 RMK AO2=
KANE 140150Z 33006KT 10SM SKC M07/M09 A2990=
KAQP 140154Z AUTO 35019G23KT 10SM OVC020 M03/M07 A2994 RMK AO2=
KAUM 140226Z AUTO 01010G20KT 10SM OVC020 M05/M08 A2984 RMK AO2=
KAXN 140153Z AUTO 36010KT 10SM OVC019 M07/M10 A2990 RMK AO2 SLP149 T10671100=
KBBB 140158Z AUTO 04010KT 10SM OVC022 M05/M09 A2995 RMK AO2=
KBDE 140153Z AUTO 28003KT 10SM OVC013 M13/M15 A2993 RMK AO2 SLP161 T11331150=
KBFW 140152Z AUTO 00000KT 10SM CLR M13/M14 A2987 RMK AO2=
KBJI 140155Z AUTO 03006KT 10SM OVC012 M10/M12 A2991 RMK AO2 T11001122=
KBRD 140153Z AUTO 35009KT 10SM OVC021 M08/M11 A2991 RMK AO2 SLP153 T10781111=
KCBG 140155Z AUTO 30005KT 10SM BKN027 BKN034 OVC042 M06/M11 A2991 RMK AO2=
KCDD 140151Z AUTO 00000KT 10SM -SN OVC015 M11/M12 A2992 RMK AO2=
KCKC 140155Z AUTO 33007KT 10SM CLR M17/M20 A2981 RMK AO2=
KCKN 140155Z AUTO 03006KT 10SM -SN OVC016 M08/M11 A2999 RMK AO2=
KCOQ 140155Z AUTO 34010KT 10SM -SN BKN039 OVC044 M08/M11 A2987 RMK AO2=
KCQM 140155Z AUTO 00000KT 10SM OVC013 M09/M12 A2989 RMK AO2=
KDLH 140155Z 36010KT 10SM OVC011 M09/M11 A2985 RMK AO2 SNE42 SLP138 P0000
 T10891106=
KDTL 140155Z AUTO 02007KT 10SM OVC014 M07/M10 A2993 RMK AO2=
KDXX 140155Z AUTO 36014KT 10SM OVC017 M02/M05 A2995 RMK AO2=
KDYT 140155Z AUTO 36015KT 10SM SCT026 SCT032 OVC050 M05/M07 A2991 RMK AO2=
KELO 140155Z AUTO 00000KT 10SM -SN OVC011 M12/M14 A2988 RMK AO2=
KETH 140154Z AUTO 35010G15KT 10SM OVC018 M06/M09 A2999 RMK AO2=
KEVM 140155Z AUTO 02003KT 10SM OVC012 M09/M13 A2988 RMK AO2 T10951126=
KFBL 140155Z AUTO 34006KT 10SM OVC028 M05/M08 A2988 RMK AO2=
KFCM 140153Z 33011KT 10SM CLR M06/M10 A2990 RMK AO2 SLP137 T10611100=
KFFM 140155Z AUTO 36006G09KT 10SM OVC017 M07/M10 A2997 RMK AO2=
KFGN 140155Z AUTO 00000KT 10SM CLR M15/M16 A2993 RMK AO2=
KFOZ 140153Z AUTO 33004KT 10SM -SN OVC012 M08/M11 A2990 RMK AO2=
KFRM 140156Z AUTO 01014KT 10SM OVC020 M03/M07 A2989 RMK AO2 SLP138 T10331067
 FZRANO=
KFSE 140155Z AUTO 35006KT 10SM -SN OVC012 M11/M12 A2994 RMK AO2=
KGHW 140155Z AUTO 36008KT 10SM BKN019 M07/M09 A2991 RMK AO2=
KGNA 140156Z AUTO 00000KT M12/M16 A2991 RMK AO1 SLP146 T11171161=
KGPZ 140156Z AUTO 34008KT 9SM -SN OVC014 M08/M10 A2991 RMK AO2 SNB10 SLP155
 P0000 T10781100 FZRANO=
KGYL 140155Z AUTO 35007KT 10SM CLR M05/M07 A2990 RMK AO2 T10541072=
KHCD 140155Z AUTO 33012KT 10SM CLR M06/M08 A2991 RMK AO2 T10571083=
KHCO 140155Z AUTO 01007KT 10SM OVC013 M08/M10 A3000 RMK AO2=
KHIB 140153Z AUTO 01008KT 10SM OVC013 M09/M12 A2988 RMK AO2 SLP146 T10891117=
KINL 140155Z AUTO 35006KT 10SM OVC011 M09/M12 A2991 RMK AO2 SLP155 T10891117=
KJKJ 140155Z AUTO 01013KT 10SM UP OVC019 M07/M11 A2998 RMK AO2=
KJMR 140155Z AUTO 32006KT 10SM OVC032 M07/M10 A2991 RMK AO2=
KJYG 140155Z AUTO 35013G18KT 10SM BKN021 OVC028 M03/M07 A2991 RMK AO2=
KLJF 140155Z AUTO 36005KT 10SM CLR M07/M08 A2991 RMK AO2=
KLVN 140155Z AUTO 34009KT 10SM OVC024 M06/M08 A2989 RMK AO2=
KLXL 140155Z AUTO 35003KT 10SM CLR M08/M13 A2992 RMK AO2=
KMGG 140155Z AUTO 33007KT 10SM OVC055 M06/M09 A2993 RMK AO2 T10601086=
KMIC 140153Z 34007KT 10SM CLR M07/M11 A2990 RMK AO2 SLP140 T10721111=
KMJQ 140155Z AUTO 10SM SCT010 BKN018 OVC023 M02/M05 A2988 RMK AO2=
KMKT 140156Z AUTO 35013KT 10SM BKN029 BKN050 M05/M08 A2989 RMK AO2 SNE43 SLP138
 P0000 T10501078 FZRANO=
KMML 140156Z AUTO 35017KT 10SM BKN011 OVC020 M03/M06 A2993 RMK AO2 SLP150
 T10331056 FZRANO=
KMOX 140155Z AUTO 33012G17KT 10SM OVC018 M06/M08 A2993 RMK AO2=
KMSP 140153Z 34008KT 10SM FEW025 M06/M09 A2991 RMK AO2 SLP141 T10611089=
KMVE 140155Z AUTO 02013KT 10SM BKN022 OVC027 M04/M07 A2993 RMK AO2=
KMWM 140155Z AUTO 33018G29KT 10SM M03/M10 A2989 RMK AO2 TSNO=
KMZH 140155Z AUTO 36005KT 10SM -SN OVC041 M06/M09 A2988 RMK AO2=
KONA 140155Z AUTO 35005KT 10SM M05/M10 A2986 RMK AO2=
KORB 140153Z AUTO 00000KT 10SM OVC014 M09/M12 A2986 RMK AO2=
KOTG 140156Z AUTO 01015G25KT 10SM BKN012 OVC018 M02/M04 A2990 RMK AO2 PK WND
 34028/0128 SLP144 T10221044 FZRANO=
KOWA 140152Z AUTO 35016G19KT 10SM OVC023 M05/M08 A2985 RMK AO2=
KPKD 140153Z AUTO 03008KT 10SM OVC012 M09/M12 A2989 RMK AO2 SLP149 T10941122=
KPNM 140155Z AUTO 00000KT 10SM BKN034 M08/M11 A2991 RMK AO2 TSNO=
KPQN 140155Z AUTO 03014G21KT 10SM SCT013 BKN029 OVC038 M01/M04 A2989 RMK AO2=
KPWC 140155Z AUTO 35009KT 10SM -SN OVC015 M10/M12 A2994 RMK AO2=
KRGK 140155Z AUTO 35006KT 10SM CLR M06/M12 A2988 RMK AO2=
KROS 140155Z AUTO 34007KT 10SM OVC024 M06/M08 A2990 RMK AO2 T10571083=
KROX 140155Z AUTO 00000KT 10SM SCT011 M10/M13 A2995 RMK AO2=
KRRT 140155Z AUTO 28003KT 10SM CLR M14/M17 A2994 RMK AO2=
KRST 140154Z 35015KT 10SM OVC020 M06/M08 A2982 RMK AO2 SLP114 T10561078=
KRWF 140153Z AUTO 01010G16KT 10SM BKN021 OVC027 M03/M08 A2992 RMK AO2 SLP143
 T10331083=
KSAZ 140155Z AUTO 01007KT 10SM OVC015 M09/M12 A2992 RMK AO2=
KSGS 140155Z AUTO 34007KT 10SM CLR M05/M09 A2990 RMK AO2 T10551090=
KSTC 140153Z 36007KT 10SM SCT034 M08/M11 A2991 RMK AO2 SLP155 T10781106=
KSTP 140153Z 33010KT 10SM CLR M06/M09 A2992 RMK AO2 SLP140 T10611094=
KTOB 140155Z AUTO 35011G19KT 10SM OVC023 M06/M08 A2983 RMK AO2=
KTVF 140201Z AUTO 35006KT 9SM -SN OVC011 M09/M11 A2996 RMK AO2 SLP168 P0000
 T10941111 FZRANO=
KTWM 140155Z AUTO 00000KT 10SM CLR M10/M13 A2987 RMK AO2=
KULM 140155Z AUTO 02011G15KT 10SM OVC022 M04/M08 A2990 RMK AO2=
KVVV 140155Z AUTO 01015KT 10SM OVC013 M04/M07 A2995 RMK AO2 TSNO=
KVWU 140155Z AUTO 00000KT 10SM -SN OVC012 M11/M12 A2993 RMK AO2=
KXVG 140155Z AUTO 32003KT 10SM -SN OVC015 M09/M11 A2991 RMK AO2=